Time;durP1;ratioP1;P1;durP2;ratioP2;P2;SDS_P1;SDS_P2;PMS_P1;PMS_P2;Temp;Humidity;BMP_temperature;BMP_pressure;BME280_temperature;BME280_humidity;BME280_pressure;Samples;Min_cycle;Max_cycle;Signal;HPM_P1;HPM_P2
2020/12/10 00:01:47;;;;;;;46.30;23.13;;;3.50;95.40;;;;;;4865473;29;20450;-79
2020/12/10 00:04:14;;;;;;;45.30;22.87;;;3.40;95.40;;;;;;4849105;29;20049;-79
2020/12/10 00:06:41;;;;;;;40.00;22.03;;;3.30;95.40;;;;;;4869758;29;20398;-79
2020/12/10 00:09:08;;;;;;;46.60;23.60;;;3.10;95.40;;;;;;4880660;29;20055;-79
2020/12/10 00:11:36;;;;;;;48.57;22.27;;;3.10;95.60;;;;;;4879891;29;20052;-79
2020/12/10 00:14:03;;;;;;;50.10;23.60;;;3.00;95.70;;;;;;4880268;29;20037;-79
2020/12/10 00:16:31;;;;;;;44.80;23.07;;;3.00;95.70;;;;;;4882506;29;20045;-79
2020/12/10 00:19:04;;;;;;;39.43;20.10;;;2.90;95.70;;;;;;4882197;29;20052;-80
2020/12/10 00:21:30;;;;;;;44.80;21.10;;;2.90;95.60;;;;;;4879305;29;20053;-80
2020/12/10 00:23:57;;;;;;;46.60;21.67;;;2.80;95.70;;;;;;4866581;29;20041;-80
2020/12/10 00:26:23;;;;;;;45.53;22.47;;;2.70;95.70;;;;;;4859456;29;20579;-80
2020/12/10 00:28:50;;;;;;;44.70;22.57;;;2.60;95.70;;;;;;4873635;29;20047;-80
2020/12/10 00:31:18;;;;;;;39.57;19.97;;;2.50;95.80;;;;;;4880889;29;20059;-80
2020/12/10 00:33:44;;;;;;;57.67;25.20;;;2.40;95.90;;;;;;4839703;29;20044;-80
2020/12/10 00:36:14;;;;;;;43.87;23.97;;;2.40;95.90;;;;;;4834812;29;20092;-80
2020/12/10 00:38:41;;;;;;;49.40;23.70;;;2.30;96.00;;;;;;4868296;29;20037;-81
2020/12/10 00:41:08;;;;;;;48.50;24.53;;;2.30;96.10;;;;;;4868320;29;20041;-81
2020/12/10 00:43:34;;;;;;;49.90;24.53;;;2.20;96.10;;;;;;4869036;29;20044;-81
2020/12/10 00:46:03;;;;;;;50.23;24.03;;;2.20;96.10;;;;;;4852231;29;20037;-80
2020/12/10 00:48:30;;;;;;;46.13;22.77;;;2.20;96.20;;;;;;4870785;29;20051;-80
2020/12/10 00:50:56;;;;;;;60.93;28.03;;;2.30;96.20;;;;;;4852722;29;20052;-80
2020/12/10 00:53:23;;;;;;;48.80;24.40;;;2.30;96.20;;;;;;4869633;29;20056;-79
2020/12/10 00:55:53;;;;;;;52.10;24.50;;;2.30;96.20;;;;;;4870153;29;20065;-80
2020/12/10 00:58:20;;;;;;;52.13;25.73;;;2.30;96.20;;;;;;4864024;29;20036;-83
2020/12/10 01:01:05;;;;;;;50.77;24.70;;;2.30;96.10;;;;;;4878498;29;20052;-80
2020/12/10 01:03:31;;;;;;;38.97;19.13;;;2.30;96.10;;;;;;4854411;29;20056;-84
2020/12/10 01:05:58;;;;;;;45.97;22.70;;;2.20;96.10;;;;;;4845576;29;20064;-84
2020/12/10 01:08:27;;;;;;;49.17;24.33;;;2.10;96.10;;;;;;4843857;29;20063;-80
2020/12/10 01:10:53;;;;;;;51.20;23.27;;;2.10;96.10;;;;;;4829225;29;20056;-80
2020/12/10 01:13:27;;;;;;;48.57;23.87;;;2.00;96.10;;;;;;4852279;29;20163;-80
2020/12/10 01:15:54;;;;;;;41.43;21.10;;;2.00;96.20;;;;;;4877332;29;20063;-80
2020/12/10 01:18:23;;;;;;;48.07;24.67;;;1.90;96.20;;;;;;4861929;29;20045;-80
2020/12/10 01:20:58;;;;;;;52.47;24.47;;;1.90;96.30;;;;;;4836087;29;20041;-80
2020/12/10 01:23:25;;;;;;;54.37;24.77;;;1.90;96.30;;;;;;4863328;29;20056;-80
2020/12/10 01:25:51;;;;;;;56.37;25.97;;;1.80;96.30;;;;;;4864893;29;20040;-80
2020/12/10 01:28:18;;;;;;;58.27;27.80;;;1.80;96.30;;;;;;4829097;29;20045;-80
2020/12/10 01:30:45;;;;;;;63.87;28.30;;;1.80;96.30;;;;;;4874659;29;20048;-80
2020/12/10 01:33:11;;;;;;;85.90;31.40;;;1.70;96.40;;;;;;4837975;29;20052;-80
2020/12/10 01:35:39;;;;;;;74.23;30.03;;;1.70;96.40;;;;;;4824550;29;20045;-80
2020/12/10 01:38:05;;;;;;;73.17;28.17;;;1.80;96.50;;;;;;4882446;29;20036;-80
2020/12/10 01:40:35;;;;;;;68.63;27.43;;;1.80;96.50;;;;;;4872442;29;20072;-80
2020/12/10 01:43:02;;;;;;;86.47;32.13;;;1.80;96.40;;;;;;4827512;29;20041;-80
2020/12/10 01:45:31;;;;;;;73.73;28.57;;;1.80;96.40;;;;;;4853821;29;20060;-80
2020/12/10 01:48:04;;;;;;;84.17;32.13;;;1.80;96.40;;;;;;4833537;29;20049;-79
2020/12/10 01:50:33;;;;;;;97.00;34.77;;;1.70;96.40;;;;;;4860266;29;20041;-80
2020/12/10 01:53:00;;;;;;;60.10;26.90;;;1.80;96.50;;;;;;4846709;29;20041;-82
2020/12/10 01:55:29;;;;;;;71.27;29.60;;;1.80;96.40;;;;;;4847924;29;20583;-82
2020/12/10 01:57:55;;;;;;;80.43;32.70;;;1.80;96.40;;;;;;4876690;29;20044;-82
2020/12/10 02:00:22;;;;;;;75.80;31.27;;;1.70;96.30;;;;;;4839647;29;20036;-79
2020/12/10 02:02:56;;;;;;;91.57;34.70;;;1.70;96.30;;;;;;4863103;29;20041;-80
2020/12/10 02:05:24;;;;;;;69.37;28.93;;;1.70;96.30;;;;;;4848378;29;20495;-80
2020/12/10 02:07:50;;;;;;;61.83;27.37;;;1.60;96.40;;;;;;4870444;29;20049;-80
2020/12/10 02:10:32;;;;;;;65.67;30.13;;;1.60;96.30;;;;;;4859186;29;20044;-80
2020/12/10 02:13:05;;;;;;;62.93;27.93;;;1.50;96.30;;;;;;4880293;29;20040;-79
2020/12/10 02:15:35;;;;;;;63.03;27.77;;;1.40;96.30;;;;;;4850350;29;20041;-80
2020/12/10 02:18:07;;;;;;;61.93;27.67;;;1.30;96.30;;;;;;4865552;29;20420;-80
2020/12/10 02:20:34;;;;;;;61.40;26.50;;;1.30;96.30;;;;;;4849071;29;20413;-80
2020/12/10 02:23:19;;;;;;;62.87;29.40;;;1.20;96.30;;;;;;4856115;29;20055;-79
2020/12/10 02:25:45;;;;;;;59.73;28.27;;;1.10;96.40;;;;;;4847138;29;20064;-80
2020/12/10 02:28:15;;;;;;;62.70;28.43;;;1.10;96.40;;;;;;4866212;29;20541;-80
2020/12/10 02:30:42;;;;;;;71.07;29.97;;;1.10;96.40;;;;;;4864856;29;20044;-80
2020/12/10 02:33:10;;;;;;;60.73;27.80;;;1.00;96.40;;;;;;4845613;29;20069;-79
2020/12/10 02:35:38;;;;;;;79.10;32.37;;;1.00;96.50;;;;;;4877320;29;20040;-79
2020/12/10 02:38:08;;;;;;;69.63;29.83;;;1.00;96.50;;;;;;4872138;29;20041;-79
2020/12/10 02:40:40;;;;;;;71.40;31.10;;;1.00;96.60;;;;;;4872157;29;20061;-80
2020/12/10 02:43:07;;;;;;;64.90;28.60;;;0.90;96.50;;;;;;4874126;29;20056;-79
2020/12/10 02:45:34;;;;;;;60.47;27.37;;;0.90;96.50;;;;;;4827749;29;20045;-79
2020/12/10 02:48:00;;;;;;;75.97;29.13;;;0.90;96.50;;;;;;4836096;29;20049;-81
2020/12/10 02:50:27;;;;;;;126.83;41.27;;;0.90;96.50;;;;;;4856199;29;20053;-80
2020/12/10 02:52:53;;;;;;;77.93;30.00;;;0.90;96.50;;;;;;4859121;29;20403;-80
2020/12/10 02:55:27;;;;;;;69.80;28.77;;;0.90;96.50;;;;;;4846561;29;20068;-80
2020/12/10 02:57:57;;;;;;;65.00;28.73;;;0.80;96.50;;;;;;4878469;29;20032;-80
2020/12/10 03:00:29;;;;;;;74.13;32.40;;;0.80;96.50;;;;;;4862091;29;20047;-80
2020/12/10 03:02:58;;;;;;;64.83;29.10;;;0.70;96.50;;;;;;4844916;29;20404;-80
2020/12/10 03:05:37;;;;;;;62.87;29.07;;;0.70;96.50;;;;;;4860336;29;20045;-80
2020/12/10 03:08:04;;;;;;;59.00;26.77;;;0.60;96.50;;;;;;4861216;29;20052;-80
2020/12/10 03:10:43;;;;;;;64.77;28.13;;;0.60;96.50;;;;;;4875324;29;20045;-80
2020/12/10 03:13:11;;;;;;;58.17;26.70;;;0.60;96.60;;;;;;4844586;29;20044;-80
2020/12/10 03:15:49;;;;;;;52.27;23.87;;;0.50;96.50;;;;;;4837119;29;20049;-80
2020/12/10 03:18:43;;;;;;;62.90;28.93;;;0.50;96.60;;;;;;4860004;29;20044;-80
2020/12/10 03:21:21;;;;;;;68.00;30.03;;;0.50;96.60;;;;;;4870297;29;20064;-81
2020/12/10 03:23:50;;;;;;;54.00;25.03;;;0.40;96.60;;;;;;4875128;29;20520;-81
2020/12/10 03:26:19;;;;;;;57.33;25.03;;;0.40;96.60;;;;;;4875992;29;20412;-80
2020/12/10 03:28:48;;;;;;;84.83;34.10;;;0.40;96.60;;;;;;4867917;29;20049;-81
2020/12/10 03:31:21;;;;;;;69.77;30.60;;;0.40;96.60;;;;;;4861076;29;20053;-80
2020/12/10 03:33:50;;;;;;;58.40;26.07;;;0.30;96.90;;;;;;4873340;29;20060;-81
2020/12/10 03:36:19;;;;;;;56.27;25.13;;;0.40;96.60;;;;;;4866757;29;20072;-81
2020/12/10 03:38:51;;;;;;;55.73;24.07;;;0.30;96.60;;;;;;4855590;29;20050;-81
2020/12/10 03:41:20;;;;;;;53.50;22.80;;;0.30;96.60;;;;;;4859565;29;20130;-80
2020/12/10 03:43:56;;;;;;;56.97;24.73;;;0.30;96.60;;;;;;4856195;29;20048;-81
2020/12/10 03:46:30;;;;;;;57.53;25.73;;;0.30;96.60;;;;;;4862802;29;20040;-80
2020/12/10 03:49:00;;;;;;;47.83;21.37;;;0.30;96.60;;;;;;4846084;29;20055;-80
2020/12/10 03:51:31;;;;;;;46.87;22.97;;;0.20;96.60;;;;;;4859907;29;20060;-80
2020/12/10 03:54:13;;;;;;;55.17;24.83;;;0.20;96.60;;;;;;4860901;29;20041;-80
2020/12/10 03:56:49;;;;;;;52.53;24.73;;;0.20;96.90;;;;;;4877302;29;20037;-80
2020/12/10 03:59:19;;;;;;;51.07;23.73;;;0.20;96.70;;;;;;4874481;29;20487;-79
2020/12/10 04:01:53;;;;;;;55.53;24.33;;;0.20;96.70;;;;;;4868006;29;20397;-80
2020/12/10 04:04:37;;;;;;;50.13;22.20;;;0.10;96.70;;;;;;4875663;29;20052;-79
2020/12/10 04:07:06;;;;;;;59.67;25.00;;;0.10;96.70;;;;;;4867286;29;20504;-79
2020/12/10 04:09:43;;;;;;;50.90;24.13;;;0.10;96.70;;;;;;4882095;29;20403;-79
2020/12/10 04:12:11;;;;;;;52.80;24.13;;;0.10;96.80;;;;;;4882352;29;20053;-79
2020/12/10 04:14:39;;;;;;;57.03;25.07;;;0.10;96.80;;;;;;4885247;29;20044;-79
2020/12/10 04:17:07;;;;;;;50.00;22.83;;;0.10;96.80;;;;;;4868284;29;20050;-79
2020/12/10 04:19:44;;;;;;;69.57;28.87;;;0.10;96.80;;;;;;4883077;29;20064;-79
2020/12/10 04:22:19;;;;;;;44.80;21.88;;;0.10;96.80;;;;;;4874192;29;20041;-79
2020/12/10 04:24:53;;;;;;;64.10;26.30;;;0.10;96.80;;;;;;4861286;29;20408;-79
2020/12/10 04:27:19;;;;;;;49.93;24.07;;;0.10;96.90;;;;;;4840108;29;20041;-79
2020/12/10 04:29:49;;;;;;;46.67;22.30;;;0.20;96.90;;;;;;4860526;29;20048;-79
2020/12/10 04:32:20;;;;;;;47.97;21.90;;;0.20;96.90;;;;;;4860871;29;20052;-79
2020/12/10 04:34:49;;;;;;;50.53;23.13;;;0.20;96.90;;;;;;4861835;29;20052;-79
2020/12/10 04:37:21;;;;;;;42.97;19.37;;;0.20;96.90;;;;;;4861336;29;20505;-79
2020/12/10 04:39:50;;;;;;;47.27;20.83;;;0.20;96.80;;;;;;4845150;29;20053;-79
2020/12/10 04:42:20;;;;;;;44.37;20.37;;;0.20;96.80;;;;;;4877651;29;20417;-79
2020/12/10 04:44:50;;;;;;;42.17;20.57;;;0.20;96.80;;;;;;4862844;29;20053;-79
2020/12/10 04:47:31;;;;;;;44.17;20.53;;;0.20;96.80;;;;;;4877447;29;20493;-78
2020/12/10 04:50:02;;;;;;;56.03;27.23;;;0.10;96.70;;;;;;4876781;29;20048;-79
2020/12/10 04:52:33;;;;;;;44.37;21.90;;;0.10;96.80;;;;;;4865293;29;20037;-78
2020/12/10 04:54:59;;;;;;;53.33;24.17;;;0.10;96.80;;;;;;4863182;29;20059;-78
2020/12/10 04:57:29;;;;;;;47.07;22.53;;;0.10;96.80;;;;;;4879905;29;20115;-78
2020/12/10 05:00:05;;;;;;;41.47;19.23;;;0.00;96.80;;;;;;4881397;29;20053;-79
2020/12/10 05:02:59;;;;;;;;;;;0.00;96.80;;;;;;4860944;29;20057;-81
2020/12/10 05:05:33;;;;;;;39.20;17.63;;;0.00;96.80;;;;;;4874736;29;19915;-80
2020/12/10 05:08:03;;;;;;;59.67;25.90;;;-0.10;96.80;;;;;;4847155;29;20552;-80
2020/12/10 05:10:54;;;;;;;;;;;-0.10;96.80;;;;;;4862688;29;20516;-80
2020/12/10 05:13:20;;;;;;;49.10;22.73;;;-0.10;96.80;;;;;;4878234;29;19927;-81
2020/12/10 05:15:46;;;;;;;49.13;22.07;;;-0.10;96.80;;;;;;4870440;29;20489;-80
2020/12/10 05:18:14;;;;;;;56.33;25.27;;;-0.10;96.80;;;;;;4860858;29;20400;-83
2020/12/10 05:20:47;;;;;;;49.43;21.37;;;-0.20;96.80;;;;;;4860229;29;20052;-83
2020/12/10 05:23:16;;;;;;;62.45;27.48;;;-0.10;96.80;;;;;;4863526;29;20044;-80
2020/12/10 05:25:51;;;;;;;55.20;25.30;;;-0.20;96.80;;;;;;4865395;29;20040;-83
2020/12/10 05:28:23;;;;;;;57.20;26.37;;;-0.20;96.80;;;;;;4872742;29;20060;-83
2020/12/10 05:31:11;;;;;;;44.95;21.73;;;-0.20;96.80;;;;;;4876261;29;20516;-84
2020/12/10 05:33:55;;;;;;;53.47;23.93;;;-0.20;97.10;;;;;;4861061;29;20082;-83
2020/12/10 05:36:23;;;;;;;44.30;20.63;;;-0.30;96.80;;;;;;4879026;29;20045;-83
2020/12/10 05:39:19;;;;;;;45.77;21.17;;;-0.20;96.80;;;;;;4864557;29;20044;-83
2020/12/10 05:41:53;;;;;;;51.53;24.00;;;-0.20;96.80;;;;;;4841565;29;20049;-83
2020/12/10 05:44:25;;;;;;;50.28;23.58;;;-0.30;96.80;;;;;;4844949;29;20041;-84
2020/12/10 05:47:06;;;;;;;49.07;23.37;;;-0.30;96.80;;;;;;4877156;29;20056;-84
2020/12/10 05:49:34;;;;;;;45.30;21.33;;;-0.30;96.80;;;;;;4894170;29;20053;-83
2020/12/10 05:52:05;;;;;;;59.40;26.20;;;-0.30;96.80;;;;;;4859708;29;20037;-83
2020/12/10 05:54:39;;;;;;;56.87;24.67;;;-0.30;96.90;;;;;;4894191;29;20048;-83
2020/12/10 05:57:07;;;;;;;50.13;23.40;;;-0.30;96.90;;;;;;4890452;29;20038;-83
2020/12/10 05:59:34;;;;;;;65.90;27.57;;;-0.30;96.80;;;;;;4862661;29;20043;-83
2020/12/10 06:02:04;;;;;;;57.27;26.40;;;-0.30;96.90;;;;;;4876859;29;20048;-80
2020/12/10 06:04:32;;;;;;;58.10;27.03;;;-0.40;96.90;;;;;;4872568;29;20044;-80
2020/12/10 06:07:00;;;;;;;61.67;26.27;;;-0.30;96.90;;;;;;4870700;29;20048;-80
2020/12/10 06:09:28;;;;;;;56.30;26.63;;;-0.40;96.90;;;;;;4857529;29;20048;-80
2020/12/10 06:12:03;;;;;;;60.43;26.80;;;-0.30;96.90;;;;;;4869509;29;20048;-80
2020/12/10 06:14:30;;;;;;;58.80;25.77;;;-0.30;96.90;;;;;;4856359;29;20052;-80
2020/12/10 06:17:09;;;;;;;59.03;25.87;;;-0.40;97.10;;;;;;4881251;29;20047;-80
2020/12/10 06:19:37;;;;;;;66.20;29.13;;;-0.30;96.90;;;;;;4859174;29;20049;-83
2020/12/10 06:22:29;;;;;;;58.20;25.93;;;-0.30;96.90;;;;;;4889276;29;20047;-84
2020/12/10 06:25:01;;;;;;;55.80;24.20;;;-0.30;96.90;;;;;;4874939;29;20040;-84
2020/12/10 06:27:35;;;;;;;54.37;24.27;;;-0.30;96.90;;;;;;4861345;29;20048;-83
2020/12/10 06:30:14;;;;;;;62.67;25.97;;;-0.30;96.90;;;;;;4869192;29;20521;-83
2020/12/10 06:32:54;;;;;;;72.13;27.33;;;-0.30;96.90;;;;;;4886239;29;20048;-83
2020/12/10 06:35:24;;;;;;;54.00;25.00;;;-0.30;96.90;;;;;;4884817;29;20062;-83
2020/12/10 06:37:51;;;;;;;70.70;29.97;;;-0.30;96.90;;;;;;4865182;29;20037;-83
2020/12/10 06:40:31;;;;;;;62.20;26.47;;;-0.30;96.90;;;;;;4869408;29;20049;-83
2020/12/10 06:42:59;;;;;;;55.43;25.13;;;-0.30;96.90;;;;;;4887318;29;20047;-84
2020/12/10 06:45:35;;;;;;;51.20;22.57;;;-0.30;96.90;;;;;;4885549;29;20048;-84
2020/12/10 06:48:06;;;;;;;52.53;24.57;;;-0.30;96.90;;;;;;4886627;29;20044;-84
2020/12/10 06:50:34;;;;;;;54.17;23.87;;;-0.30;96.90;;;;;;4870271;29;20049;-83
2020/12/10 06:53:14;;;;;;;46.03;21.80;;;-0.30;96.90;;;;;;4851407;29;20079;-83
2020/12/10 06:55:57;;;;;;;47.37;21.40;;;-0.30;96.90;;;;;;4862537;29;20032;-83
2020/12/10 06:58:46;;;;;;;94.03;36.20;;;-0.20;96.90;;;;;;4862816;29;20065;-83
2020/12/10 07:01:37;;;;;;;61.73;28.47;;;-0.20;97.00;;;;;;4873801;29;20036;-83
2020/12/10 07:04:31;;;;;;;64.27;26.23;;;-0.10;97.00;;;;;;4859838;29;20063;-83
2020/12/10 07:07:16;;;;;;;63.03;25.63;;;-0.10;96.90;;;;;;4856336;29;20049;-83
2020/12/10 07:09:54;;;;;;;65.27;28.23;;;-0.10;96.80;;;;;;4884888;29;20041;-82
2020/12/10 07:12:22;;;;;;;60.05;26.95;;;-0.10;96.80;;;;;;4858966;29;20052;-83
2020/12/10 07:14:50;;;;;;;60.43;26.63;;;-0.10;96.80;;;;;;4892493;29;20384;-83
2020/12/10 07:17:18;;;;;;;50.53;21.93;;;-0.20;96.80;;;;;;4877776;29;20028;-83
2020/12/10 07:19:45;;;;;;;57.07;23.20;;;-0.20;96.70;;;;;;4859930;29;20053;-84
2020/12/10 07:22:12;;;;;;;60.67;26.40;;;-0.20;96.80;;;;;;4857679;29;20416;-82
2020/12/10 07:24:38;;;;;;;58.10;25.50;;;-0.20;96.80;;;;;;4862598;29;20091;-83
2020/12/10 07:27:05;;;;;;;60.43;25.10;;;-0.30;96.70;;;;;;4872131;29;20631;-83
2020/12/10 07:29:33;;;;;;;51.57;24.20;;;-0.30;96.80;;;;;;4855451;29;20053;-80
2020/12/10 07:32:00;;;;;;;49.97;22.37;;;-0.30;96.80;;;;;;4832462;29;20060;-79
2020/12/10 07:34:29;;;;;;;46.23;20.20;;;-0.40;96.80;;;;;;4854319;29;20400;-81
2020/12/10 07:36:56;;;;;;;60.30;26.60;;;-0.40;96.80;;;;;;4853223;29;20037;-81
2020/12/10 07:39:32;;;;;;;56.17;24.33;;;-0.40;96.80;;;;;;4870886;29;20429;-79
2020/12/10 07:42:01;;;;;;;56.60;25.40;;;-0.40;96.80;;;;;;4857797;29;20040;-79
2020/12/10 07:44:31;;;;;;;67.43;29.67;;;-0.40;96.80;;;;;;4873899;29;20051;-79
2020/12/10 07:46:58;;;;;;;56.60;24.90;;;-0.40;96.80;;;;;;4894287;29;20416;-79
2020/12/10 07:49:31;;;;;;;58.70;25.80;;;-0.40;96.80;;;;;;4855452;29;20057;-79
2020/12/10 07:52:02;;;;;;;48.83;21.33;;;-0.40;96.80;;;;;;4883301;29;20060;-79
2020/12/10 07:54:46;;;;;;;55.73;23.97;;;-0.40;96.80;;;;;;4887689;29;20131;-79
2020/12/10 07:57:39;;;;;;;49.93;21.57;;;-0.40;96.90;;;;;;4872390;29;20432;-79
2020/12/10 08:00:13;;;;;;;64.37;28.07;;;-0.40;96.90;;;;;;4854477;29;20037;-79
2020/12/10 08:03:01;;;;;;;52.70;24.13;;;-0.40;96.80;;;;;;4888097;29;20416;-79
2020/12/10 08:05:28;;;;;;;58.13;24.27;;;-0.40;96.80;;;;;;4866149;29;20040;-78
2020/12/10 08:07:56;;;;;;;81.47;31.57;;;-0.40;96.90;;;;;;4872264;29;20060;-78
2020/12/10 08:10:27;;;;;;;65.83;27.83;;;-0.30;96.90;;;;;;4874334;29;20064;-79
2020/12/10 08:13:14;;;;;;;65.63;30.03;;;-0.30;96.90;;;;;;4883359;29;20197;-79
2020/12/10 08:15:49;;;;;;;66.30;28.47;;;-0.30;96.90;;;;;;4893239;29;20045;-79
2020/12/10 08:18:18;;;;;;;65.00;29.40;;;-0.20;96.90;;;;;;4871286;29;20036;-79
2020/12/10 08:20:47;;;;;;;68.30;28.47;;;-0.20;96.90;;;;;;4859003;29;20049;-79
2020/12/10 08:23:14;;;;;;;64.33;30.33;;;-0.20;96.90;;;;;;4872259;29;20033;-79
2020/12/10 08:25:43;;;;;;;78.23;32.57;;;-0.20;96.90;;;;;;4874390;29;20040;-79
2020/12/10 08:28:11;;;;;;;69.57;29.03;;;-0.10;96.90;;;;;;4887074;29;20037;-79
2020/12/10 08:30:50;;;;;;;63.90;28.00;;;-0.10;96.90;;;;;;4873106;29;20048;-80
2020/12/10 08:33:21;;;;;;;70.33;29.03;;;-0.10;96.90;;;;;;4869391;29;20055;-79
2020/12/10 08:35:48;;;;;;;61.57;28.60;;;0.00;96.90;;;;;;4855260;29;20052;-80
2020/12/10 08:38:15;;;;;;;69.23;30.40;;;0.10;96.90;;;;;;4892572;29;20476;-80
2020/12/10 08:40:42;;;;;;;70.33;31.00;;;0.10;96.90;;;;;;4861623;29;20495;-79
2020/12/10 08:43:15;;;;;;;79.13;32.50;;;0.20;96.90;;;;;;4857351;29;20045;-79
2020/12/10 08:45:46;;;;;;;68.53;30.63;;;0.20;96.90;;;;;;4891576;29;20037;-82
2020/12/10 08:48:23;;;;;;;64.83;28.33;;;0.30;96.90;;;;;;4892628;29;20404;-83
2020/12/10 08:50:58;;;;;;;60.97;27.43;;;0.30;96.90;;;;;;4890303;29;20040;-81
2020/12/10 08:53:25;;;;;;;54.50;25.80;;;0.40;96.90;;;;;;4879888;29;20056;-82
2020/12/10 08:55:55;;;;;;;67.57;30.70;;;0.40;97.10;;;;;;4860429;29;20048;-79
2020/12/10 08:58:28;;;;;;;69.07;29.90;;;0.40;96.80;;;;;;4870835;29;20044;-79
2020/12/10 09:00:57;;;;;;;65.60;30.10;;;0.50;96.80;;;;;;4870629;29;20044;-83
2020/12/10 09:03:30;;;;;;;62.90;28.83;;;0.50;96.80;;;;;;4850943;29;20033;-83
2020/12/10 09:06:17;;;;;;;66.07;29.67;;;0.50;96.80;;;;;;4865268;29;20051;-82
2020/12/10 09:08:51;;;;;;;69.43;31.47;;;0.50;96.70;;;;;;4861704;29;20492;-83
2020/12/10 09:11:18;;;;;;;64.17;30.30;;;0.50;96.70;;;;;;4857978;29;20044;-83
2020/12/10 09:13:47;;;;;;;63.23;29.23;;;0.40;96.60;;;;;;4856904;29;20519;-83
2020/12/10 09:16:16;;;;;;;66.40;31.57;;;0.40;96.70;;;;;;4834199;29;20044;-82
2020/12/10 09:18:44;;;;;;;69.80;31.93;;;0.50;96.80;;;;;;4880809;29;20056;-83
2020/12/10 09:21:10;;;;;;;68.27;30.03;;;0.50;97.00;;;;;;4895623;29;20055;-83
2020/12/10 09:23:57;;;;;;;68.03;31.17;;;0.50;96.70;;;;;;4892213;29;20064;-82
2020/12/10 09:26:25;;;;;;;62.93;29.27;;;0.50;96.70;;;;;;4848621;29;20048;-83
2020/12/10 09:28:51;;;;;;;55.47;27.07;;;0.50;96.60;;;;;;4869834;29;20501;-83
2020/12/10 09:31:38;;;;;;;52.70;26.20;;;0.50;96.60;;;;;;4861162;29;20737;-83
2020/12/10 09:34:05;;;;;;;61.20;27.90;;;0.50;96.70;;;;;;4856407;29;20056;-83
2020/12/10 09:36:33;;;;;;;62.67;28.83;;;0.40;96.70;;;;;;4889646;29;20041;-83
2020/12/10 09:39:01;;;;;;;62.33;29.40;;;0.40;96.70;;;;;;4874316;29;20056;-84
2020/12/10 09:41:27;;;;;;;66.23;31.63;;;0.50;96.80;;;;;;4856231;29;20488;-83
2020/12/10 09:43:55;;;;;;;56.27;26.57;;;0.50;96.80;;;;;;4872228;29;20064;-84
2020/12/10 09:46:21;;;;;;;65.00;31.97;;;0.60;97.00;;;;;;4875401;29;20056;-87
2020/12/10 09:48:48;;;;;;;58.77;29.70;;;0.70;97.00;;;;;;4841045;29;20058;-83
2020/12/10 09:51:16;;;;;;;46.03;25.57;;;0.90;97.20;;;;;;4856267;29;20052;-83
2020/12/10 09:53:46;;;;;;;139.03;28.37;;;1.10;97.50;;;;;;4895019;29;20056;-83
2020/12/10 09:58:43;;;;;;;50.10;23.60;;;1.60;97.80;;;;;;4860704;29;20052;-82
2020/12/10 10:01:14;;;;;;;42.23;22.40;;;1.90;97.80;;;;;;4862901;29;20039;-83
2020/12/10 10:04:00;;;;;;;109.27;28.03;;;2.20;97.70;;;;;;4882769;29;20048;-83
2020/12/10 10:06:27;;;;;;;53.73;25.43;;;2.40;97.40;;;;;;4894139;29;20057;-83
2020/12/10 10:08:57;;;;;;;57.87;25.87;;;2.60;97.20;;;;;;4877179;29;20060;-84
2020/12/10 10:11:24;;;;;;;50.10;26.50;;;2.80;97.00;;;;;;4868028;29;20053;-80
2020/12/10 10:13:50;;;;;;;106.83;27.93;;;2.90;96.40;;;;;;4863683;29;20059;-80
2020/12/10 10:16:17;;;;;;;46.35;23.75;;;3.00;96.30;;;;;;4842927;29;20044;-80
2020/12/10 10:18:45;;;;;;;37.60;24.35;;;3.20;96.30;;;;;;4884879;29;20040;-80
2020/12/10 10:21:18;;;;;;;37.95;23.67;;;3.40;96.00;;;;;;4886695;29;20044;-81
2020/12/10 10:23:44;;;;;;;39.97;24.30;;;3.60;95.70;;;;;;4873059;29;20049;-84
2020/12/10 10:26:13;;;;;;;34.33;22.70;;;3.60;95.50;;;;;;4858709;29;20042;-84
2020/12/10 10:28:40;;;;;;;33.92;22.45;;;3.60;95.20;;;;;;4861671;29;20055;-84
2020/12/10 10:31:09;;;;;;;39.83;24.73;;;3.50;95.10;;;;;;4876361;29;20042;-84
2020/12/10 10:33:38;;;;;;;39.90;24.98;;;3.40;94.90;;;;;;4845719;29;20488;-81
2020/12/10 10:36:11;;;;;;;41.57;25.23;;;3.20;95.00;;;;;;4859668;29;20036;-82
2020/12/10 10:38:40;;;;;;;43.57;26.90;;;3.10;94.90;;;;;;4858755;29;20048;-82
2020/12/10 10:41:27;;;;;;;48.90;29.73;;;3.00;95.00;;;;;;4886319;29;20052;-79
2020/12/10 10:43:53;;;;;;;53.73;31.33;;;2.90;95.00;;;;;;4845315;29;20041;-81
2020/12/10 10:46:43;;;;;;;58.07;32.03;;;2.80;94.90;;;;;;4883586;29;20044;-81
2020/12/10 10:49:12;;;;;;;56.70;31.23;;;2.70;94.80;;;;;;4890152;29;20032;-86
2020/12/10 10:51:39;;;;;;;61.27;33.13;;;2.50;94.90;;;;;;4851940;29;20045;-81
2020/12/10 10:54:28;;;;;;;66.50;37.67;;;2.40;94.80;;;;;;4857999;29;20044;-81
2020/12/10 10:57:15;;;;;;;62.57;35.70;;;2.30;94.80;;;;;;4873998;29;20048;-82
2020/12/10 10:59:44;;;;;;;58.30;30.60;;;2.20;95.00;;;;;;4890500;29;20074;-81
2020/12/10 11:02:40;;;;;;;60.93;31.97;;;2.20;95.00;;;;;;4852305;29;20041;-81
2020/12/10 11:05:57;;;;;;;63.63;31.93;;;2.10;94.90;;;;;;4851234;29;20048;-83
2020/12/10 11:08:31;;;;;;;61.57;33.50;;;2.00;94.90;;;;;;4861209;29;20063;-82
2020/12/10 11:11:01;;;;;;;59.80;31.70;;;2.00;94.90;;;;;;4867611;29;20033;-84
2020/12/10 11:13:50;;;;;;;63.37;34.60;;;2.00;95.00;;;;;;4865496;29;20041;-87
2020/12/10 11:16:18;;;;;;;60.57;33.70;;;2.00;94.90;;;;;;4881435;29;20056;-81
2020/12/10 11:18:45;;;;;;;61.57;32.43;;;1.90;94.80;;;;;;4886465;29;20878;-87
2020/12/10 11:21:13;;;;;;;58.37;31.37;;;1.90;94.80;;;;;;4864693;29;20069;-84
2020/12/10 11:24:03;;;;;;;59.10;30.87;;;1.90;94.80;;;;;;4875543;29;20041;-85
2020/12/10 11:27:01;;;;;;;55.43;30.60;;;1.90;94.80;;;;;;4865091;29;20400;-88
2020/12/10 11:29:31;;;;;;;63.73;36.47;;;2.00;94.80;;;;;;4880739;29;20045;-86
2020/12/10 11:32:03;;;;;;;69.97;37.65;;;2.00;94.80;;;;;;4848640;29;20400;-85
2020/12/10 11:34:30;;;;;;;69.30;34.77;;;2.10;94.80;;;;;;4844828;29;20037;-85
2020/12/10 11:36:57;;;;;;;61.60;32.67;;;2.10;94.70;;;;;;4854525;29;20049;-86
2020/12/10 11:39:26;;;;;;;52.37;29.07;;;2.10;94.50;;;;;;4891805;29;20396;-85
2020/12/10 11:41:53;;;;;;;50.90;28.73;;;2.10;94.50;;;;;;4876309;29;20036;-87
2020/12/10 11:44:32;;;;;;;53.07;29.40;;;2.10;94.50;;;;;;4859809;29;20041;-90
2020/12/10 11:47:04;;;;;;;48.37;27.20;;;2.10;94.50;;;;;;4859981;29;20044;-90
2020/12/10 11:49:40;;;;;;;50.07;28.27;;;2.20;94.50;;;;;;4846812;29;20053;-90
2020/12/10 11:52:32;;;;;;;56.97;31.23;;;2.20;94.50;;;;;;4860038;29;20053;-89
2020/12/10 11:55:22;;;;;;;65.37;34.63;;;2.30;94.40;;;;;;4886851;29;20045;-89
2020/12/10 11:57:49;;;;;;;51.03;28.67;;;2.30;94.10;;;;;;4889713;29;20056;-89
2020/12/10 12:00:18;;;;;;;55.27;29.03;;;2.30;94.10;;;;;;4873012;29;20045;-82
2020/12/10 12:02:47;;;;;;;57.57;30.67;;;2.30;94.10;;;;;;4837772;29;20038;-83
2020/12/10 12:05:14;;;;;;;58.50;30.90;;;2.30;94.20;;;;;;4882600;29;20045;-83
2020/12/10 12:07:44;;;;;;;52.73;29.63;;;2.30;94.30;;;;;;4886132;29;20047;-81
2020/12/10 12:10:34;;;;;;;53.83;30.13;;;2.40;94.30;;;;;;4864016;29;20053;-80
2020/12/10 12:13:03;;;;;;;51.43;28.73;;;2.50;94.30;;;;;;4869257;29;20040;-81
2020/12/10 12:15:32;;;;;;;59.93;32.40;;;2.50;94.20;;;;;;4870652;29;20060;-81
2020/12/10 12:18:22;;;;;;;53.60;29.30;;;2.60;94.10;;;;;;4885233;29;20385;-84
2020/12/10 12:20:49;;;;;;;52.57;29.27;;;2.50;94.00;;;;;;4856577;29;20037;-81
2020/12/10 12:23:19;;;;;;;48.53;28.07;;;2.60;94.20;;;;;;4860075;29;20048;-83
2020/12/10 12:25:47;;;;;;;51.30;28.63;;;2.60;94.10;;;;;;4858439;29;20059;-82
2020/12/10 12:28:18;;;;;;;46.40;27.20;;;2.60;94.10;;;;;;4875080;29;20668;-81
2020/12/10 12:30:46;;;;;;;54.53;29.20;;;2.70;94.10;;;;;;4876266;29;20047;-81
2020/12/10 12:33:13;;;;;;;54.40;29.00;;;2.70;94.00;;;;;;4897507;29;20496;-82
2020/12/10 12:35:49;;;;;;;53.17;30.97;;;2.60;93.90;;;;;;4879006;29;20052;-82
2020/12/10 12:38:23;;;;;;;59.03;33.13;;;2.60;93.80;;;;;;4864128;29;20041;-81
2020/12/10 12:41:11;;;;;;;61.20;33.63;;;2.60;93.70;;;;;;4897861;29;20794;-81
2020/12/10 12:43:40;;;;;;;60.70;31.67;;;2.50;93.50;;;;;;4852335;29;20048;-81
2020/12/10 12:46:08;;;;;;;53.90;31.03;;;2.50;93.70;;;;;;4860265;29;20061;-81
2020/12/10 12:48:35;;;;;;;55.70;31.13;;;2.50;93.70;;;;;;4896753;29;20122;-82
2020/12/10 12:51:22;;;;;;;65.60;35.17;;;2.50;93.60;;;;;;4890397;29;20408;-81
2020/12/10 12:53:52;;;;;;;55.00;31.23;;;2.50;93.60;;;;;;4878447;29;20049;-82
2020/12/10 12:56:22;;;;;;;55.50;29.63;;;2.40;93.60;;;;;;4878689;29;20052;-82
2020/12/10 12:58:51;;;;;;;57.73;30.97;;;2.40;93.60;;;;;;4861175;29;20040;-82
2020/12/10 13:01:19;;;;;;;53.00;27.87;;;2.30;93.60;;;;;;4857179;29;20057;-81
2020/12/10 13:03:48;;;;;;;57.43;30.43;;;2.30;93.70;;;;;;4864345;29;20166;-82